createdAt,value
2023-03-21T00:02:19.586Z,18.60
2023-03-21T00:07:21.351Z,22.60
2023-03-21T00:12:23.717Z,13.40
2023-03-21T00:17:32.469Z,15.50
2023-03-21T00:22:35.807Z,15.00
2023-03-21T00:28:05.249Z,16.30
2023-03-21T00:33:03.548Z,12.50
2023-03-21T00:38:09.859Z,12.60
2023-03-21T00:43:14.463Z,12.80
2023-03-21T00:48:16.268Z,13.20
2023-03-21T00:53:18.929Z,12.40
2023-03-21T00:58:21.307Z,15.00
2023-03-21T01:03:26.571Z,15.30
2023-03-21T01:13:53.769Z,15.90
2023-03-21T01:18:59.601Z,18.50
2023-03-21T01:24:01.831Z,18.00
2023-03-21T01:29:05.520Z,19.20
2023-03-21T01:34:07.624Z,19.10
2023-03-21T01:39:09.380Z,19.20
2023-03-21T01:44:16.881Z,18.40
2023-03-21T01:49:34.459Z,17.30
2023-03-21T01:54:57.313Z,20.60
2023-03-21T02:00:12.086Z,19.50
2023-03-21T02:05:40.543Z,16.60
2023-03-21T02:10:45.655Z,14.70
2023-03-21T02:16:00.015Z,14.90
2023-03-21T02:21:40.312Z,16.30
2023-03-21T02:27:21.814Z,15.90
2023-03-21T02:32:38.377Z,15.60
2023-03-21T02:37:55.202Z,14.70
2023-03-21T02:43:28.076Z,18.00
2023-03-21T02:48:50.632Z,18.40
2023-03-21T02:54:26.112Z,20.00
2023-03-21T02:59:25.103Z,20.30
2023-03-21T03:04:28.991Z,22.90
2023-03-21T03:09:45.172Z,20.80
2023-03-21T03:15:09.823Z,18.70
2023-03-21T03:20:38.955Z,19.40
2023-03-21T03:25:49.723Z,15.70
2023-03-21T03:31:08.099Z,19.60
2023-03-21T03:36:33.564Z,19.90
2023-03-21T03:42:12.565Z,20.80
2023-03-21T03:47:29.915Z,18.30
2023-03-21T03:57:46.503Z,18.50
2023-03-21T04:02:48.607Z,17.10
2023-03-21T04:07:53.628Z,16.60
2023-03-21T04:13:02.721Z,12.30
2023-03-21T04:18:14.719Z,15.70
2023-03-21T04:23:21.618Z,16.00
2023-03-21T04:28:23.776Z,16.90
2023-03-21T04:33:44.720Z,16.40
2023-03-21T04:38:48.546Z,16.80
2023-03-21T04:43:52.454Z,21.80
2023-03-21T04:48:54.605Z,20.80
2023-03-21T04:53:57.599Z,15.00
2023-03-21T04:59:08.381Z,14.80
2023-03-21T05:04:12.094Z,15.40
2023-03-21T05:09:14.144Z,15.00
2023-03-21T05:14:18.864Z,14.50
2023-03-21T05:19:22.755Z,15.70
2023-03-21T05:24:24.949Z,18.30
2023-03-21T05:29:27.780Z,18.50
2023-03-21T05:34:37.529Z,19.70
2023-03-21T05:39:39.385Z,23.50
2023-03-21T05:44:46.508Z,26.90
2023-03-21T05:49:49.852Z,30.00
2023-03-21T05:54:52.350Z,28.70
2023-03-21T05:59:56.577Z,19.90
2023-03-21T06:04:58.441Z,22.10
2023-03-21T06:10:01.404Z,23.10
2023-03-21T06:15:06.146Z,22.70
2023-03-21T06:20:34.191Z,20.60
2023-03-21T06:25:41.683Z,19.80
2023-03-21T06:30:43.660Z,23.80
2023-03-21T06:35:58.848Z,18.60
2023-03-21T06:41:04.649Z,14.80
2023-03-21T06:46:08.448Z,19.30
2023-03-21T06:51:12.399Z,15.40
2023-03-21T06:56:16.356Z,16.10
2023-03-21T07:01:19.006Z,16.80
2023-03-21T07:06:30.279Z,13.40
2023-03-21T07:11:32.466Z,11.40
2023-03-21T07:16:34.410Z,12.40
2023-03-21T07:21:36.140Z,12.20
2023-03-21T07:26:38.516Z,12.00
2023-03-21T07:31:40.616Z,12.80
2023-03-21T07:36:42.881Z,11.90
2023-03-21T07:41:44.672Z,13.60
2023-03-21T07:46:57.261Z,14.20
2023-03-21T07:52:00.072Z,11.70
2023-03-21T07:57:01.950Z,12.80
2023-03-21T08:02:03.700Z,13.40
2023-03-21T08:07:05.473Z,14.50
2023-03-21T08:12:08.509Z,15.40
2023-03-21T08:17:10.511Z,15.20
2023-03-21T08:22:12.453Z,13.70
2023-03-21T08:27:14.202Z,16.00
2023-03-21T08:32:19.514Z,13.80
2023-03-21T08:37:21.738Z,17.20
2023-03-21T08:42:23.577Z,17.10
2023-03-21T08:47:29.452Z,17.10
2023-03-21T08:52:31.380Z,16.60
2023-03-21T08:57:33.391Z,16.70
2023-03-21T09:02:35.379Z,17.60
2023-03-21T09:07:39.476Z,18.50
2023-03-21T09:12:41.324Z,18.50
2023-03-21T09:17:44.103Z,17.20
2023-03-21T09:22:47.644Z,16.90
2023-03-21T09:32:53.443Z,19.10
2023-03-21T09:37:59.533Z,15.70
2023-03-21T09:43:11.888Z,16.50
2023-03-21T09:48:31.265Z,14.90
2023-03-21T09:53:37.633Z,10.50
2023-03-21T09:58:46.720Z,14.80
2023-03-21T10:03:50.601Z,15.10
2023-03-21T10:08:53.152Z,20.00
2023-03-21T10:13:59.683Z,13.20
2023-03-21T10:19:08.184Z,19.00
2023-03-21T10:24:14.240Z,17.80
2023-03-21T10:29:18.537Z,16.60
2023-03-21T10:34:28.527Z,20.20
2023-03-21T10:44:48.594Z,18.10
2023-03-21T10:50:06.778Z,20.90
2023-03-21T10:55:12.566Z,18.10
2023-03-21T11:00:21.933Z,16.70
2023-03-21T11:05:40.214Z,16.10
2023-03-21T11:11:00.973Z,10.50
2023-03-21T11:16:11.945Z,17.70
2023-03-21T11:21:16.428Z,13.80
2023-03-21T11:26:36.771Z,18.80
2023-03-21T11:31:40.959Z,18.60
2023-03-21T11:36:42.631Z,11.30
2023-03-21T11:41:48.052Z,21.00
2023-03-21T11:46:49.718Z,14.80
2023-03-21T11:52:06.495Z,14.80
2023-03-21T11:57:34.060Z,20.70
2023-03-21T12:02:55.780Z,18.20
2023-03-21T12:08:12.840Z,16.50
2023-03-21T12:13:26.631Z,14.40
2023-03-21T12:19:23.231Z,12.50
2023-03-21T12:24:33.204Z,15.60
2023-03-21T12:29:50.441Z,15.40
2023-03-21T12:35:13.636Z,16.20
2023-03-21T12:40:39.522Z,15.40
2023-03-21T12:45:49.114Z,14.10
2023-03-21T12:56:01.025Z,14.90
2023-03-21T13:01:05.456Z,14.50
2023-03-21T13:06:10.916Z,14.40
2023-03-21T13:11:21.290Z,13.10
2023-03-21T13:16:51.863Z,12.00
2023-03-21T13:22:28.453Z,12.00
2023-03-21T13:27:32.103Z,12.60
2023-03-21T13:32:39.259Z,13.40
2023-03-21T13:37:49.239Z,12.40
2023-03-21T13:42:59.652Z,14.10
2023-03-21T13:48:07.419Z,14.30
2023-03-21T13:53:14.900Z,12.40
2023-03-21T13:58:31.728Z,11.90
2023-03-21T14:03:35.463Z,11.70
2023-03-21T14:08:41.221Z,9.60
2023-03-21T14:13:51.340Z,10.10
2023-03-21T14:19:06.597Z,11.10
2023-03-21T14:24:13.300Z,7.90
2023-03-21T14:29:26.931Z,11.60
2023-03-21T14:34:31.984Z,12.00
2023-03-21T14:39:33.739Z,11.00
2023-03-21T14:44:54.876Z,11.60
2023-03-21T14:49:58.751Z,10.40
2023-03-21T14:55:03.330Z,12.50
2023-03-21T15:00:17.159Z,13.60
2023-03-21T15:05:29.493Z,13.40
2023-03-21T15:10:32.155Z,13.50
2023-03-21T15:15:34.031Z,16.30
2023-03-21T15:20:38.334Z,15.40
2023-03-21T15:25:41.039Z,17.00
2023-03-21T15:30:51.279Z,15.90
2023-03-21T15:41:19.287Z,15.90
2023-03-21T15:46:50.895Z,15.40
2023-03-21T15:51:58.038Z,17.60
2023-03-21T15:57:04.592Z,18.30
2023-03-21T16:02:16.528Z,19.50
2023-03-21T16:07:18.708Z,18.90
2023-03-21T16:12:20.433Z,21.50
2023-03-21T16:17:29.340Z,20.60
2023-03-21T16:22:34.931Z,18.90
2023-03-21T16:27:36.605Z,20.00
2023-03-21T16:32:38.320Z,18.90
2023-03-21T16:37:40.922Z,20.80
2023-03-21T16:42:43.861Z,24.60
2023-03-21T16:47:45.757Z,24.90
2023-03-21T16:52:48.174Z,25.90
2023-03-21T16:57:52.327Z,26.30
2023-03-21T17:02:56.672Z,27.20
2023-03-21T17:08:02.051Z,27.60
2023-03-21T17:13:03.756Z,29.10
2023-03-21T17:18:05.943Z,41.60
2023-03-21T17:23:08.060Z,47.30
2023-03-21T17:28:09.809Z,48.90
2023-03-21T17:33:11.847Z,42.70
2023-03-21T17:38:17.566Z,42.00
2023-03-21T17:43:21.227Z,38.50
2023-03-21T17:48:23.061Z,38.40
2023-03-21T17:53:26.629Z,47.80
2023-03-21T17:58:28.529Z,54.90
2023-03-21T18:03:30.347Z,46.40
2023-03-21T18:08:33.091Z,43.30
2023-03-21T18:13:34.828Z,34.50
2023-03-21T18:18:37.794Z,33.20
2023-03-21T18:23:41.099Z,36.30
2023-03-21T18:28:43.623Z,43.00
2023-03-21T18:33:48.098Z,36.10
2023-03-21T18:38:50.333Z,36.30
2023-03-21T18:44:05.274Z,37.40
2023-03-21T18:49:53.694Z,40.90
2023-03-21T18:54:33.137Z,74.60
2023-03-21T18:59:35.933Z,58.00
2023-03-21T19:04:38.147Z,50.10
2023-03-21T19:10:01.465Z,51.70
2023-03-21T19:15:03.159Z,45.30
2023-03-21T19:20:05.862Z,53.30
2023-03-21T19:25:09.406Z,54.20
2023-03-21T19:30:15.445Z,48.00
2023-03-21T19:35:19.372Z,50.90
2023-03-21T19:40:23.034Z,46.80
2023-03-21T19:45:26.197Z,45.00
2023-03-21T19:55:54.362Z,30.20
2023-03-21T20:00:56.425Z,31.70
2023-03-21T20:06:10.252Z,29.90
2023-03-21T20:11:12.377Z,31.80
2023-03-21T20:16:14.119Z,32.80
2023-03-21T20:21:18.517Z,31.60
2023-03-21T20:26:26.140Z,27.70
2023-03-21T20:31:27.915Z,27.90
2023-03-21T20:36:39.400Z,29.20
2023-03-21T20:41:43.470Z,26.50
2023-03-21T20:46:47.110Z,33.20
2023-03-21T20:57:14.001Z,39.60
2023-03-21T21:02:16.787Z,59.60
2023-03-21T21:07:22.468Z,62.00
2023-03-21T21:12:28.562Z,61.00
2023-03-21T21:18:02.104Z,66.10
2023-03-21T21:22:59.978Z,58.80
2023-03-21T21:28:03.579Z,56.10
2023-03-21T21:33:05.536Z,44.10
2023-03-21T21:38:07.556Z,35.80
2023-03-21T21:43:09.389Z,40.50
2023-03-21T21:48:11.847Z,64.10
2023-03-21T21:53:19.114Z,44.20
2023-03-21T21:58:21.930Z,33.10
2023-03-21T22:03:24.342Z,39.80
2023-03-21T22:08:26.384Z,43.10
2023-03-21T22:13:36.705Z,41.30
2023-03-21T22:18:38.657Z,43.90
2023-03-21T22:23:43.580Z,36.50
2023-03-21T22:28:45.281Z,40.00
2023-03-21T22:38:52.052Z,32.40
2023-03-21T22:43:55.357Z,35.50
2023-03-21T22:48:57.407Z,40.20
2023-03-21T22:54:00.877Z,36.70
2023-03-21T22:59:02.618Z,38.60
2023-03-21T23:04:08.054Z,37.30
2023-03-21T23:09:10.538Z,37.70
2023-03-21T23:14:15.177Z,38.50
2023-03-21T23:19:25.435Z,38.50
2023-03-21T23:24:27.294Z,40.10
2023-03-21T23:29:29.098Z,50.40
2023-03-21T23:34:31.683Z,47.80
2023-03-21T23:39:33.787Z,49.60
2023-03-21T23:44:35.736Z,49.60
2023-03-21T23:49:40.880Z,47.20
2023-03-21T23:54:42.559Z,48.40
2023-03-21T23:59:46.613Z,56.00
